createdAt,value
2019-05-19T00:02:19.851Z,70.07
2019-05-19T00:07:21.980Z,69.78
2019-05-19T00:12:24.149Z,70.51
2019-05-19T00:17:26.006Z,70.25
2019-05-19T00:22:28.138Z,70.23
2019-05-19T00:27:30.334Z,70.78
2019-05-19T00:32:32.415Z,71.22
2019-05-19T00:37:34.510Z,71.36
2019-05-19T00:42:36.486Z,72.31
2019-05-19T00:47:38.501Z,71.66
2019-05-19T00:52:40.586Z,71.09
2019-05-19T00:57:43.076Z,71.39
2019-05-19T01:02:45.275Z,70.55
2019-05-19T01:07:47.253Z,71.10
2019-05-19T01:12:49.293Z,70.65
2019-05-19T01:17:51.519Z,71.90
2019-05-19T01:22:53.658Z,72.52
2019-05-19T01:27:56.832Z,73.08
2019-05-19T01:32:58.814Z,73.02
2019-05-19T01:38:00.998Z,72.49
2019-05-19T01:43:03.696Z,72.68
2019-05-19T01:48:05.822Z,71.90
2019-05-19T01:53:07.985Z,72.80
2019-05-19T01:58:10.212Z,72.51
2019-05-19T02:03:12.383Z,72.28
2019-05-19T02:08:14.399Z,72.47
2019-05-19T02:13:16.374Z,72.79
2019-05-19T02:18:18.482Z,72.58
2019-05-19T02:23:20.576Z,73.41
2019-05-19T02:28:22.797Z,73.85
2019-05-19T02:33:25.127Z,74.04
2019-05-19T02:38:27.140Z,74.20
2019-05-19T02:43:29.355Z,73.51
2019-05-19T02:48:32.230Z,73.54
2019-05-19T02:53:34.463Z,74.79
2019-05-19T02:58:37.389Z,74.67
2019-05-19T03:03:39.409Z,74.62
2019-05-19T03:08:41.451Z,74.57
2019-05-19T03:13:43.529Z,74.70
2019-05-19T03:18:45.611Z,74.07
2019-05-19T03:23:47.696Z,73.68
2019-05-19T03:28:49.683Z,73.12
2019-05-19T03:33:56.322Z,74.35
2019-05-19T03:38:58.398Z,73.85
2019-05-19T03:44:01.182Z,74.11
2019-05-19T03:49:03.170Z,74.42
2019-05-19T03:54:05.273Z,74.45
2019-05-19T03:59:07.306Z,74.11
2019-05-19T04:04:09.350Z,73.73
2019-05-19T04:09:11.498Z,73.83
2019-05-19T04:14:13.507Z,73.19
2019-05-19T04:19:15.721Z,73.52
2019-05-19T04:24:17.599Z,72.25
2019-05-19T04:29:19.699Z,71.93
2019-05-19T04:34:21.666Z,71.59
2019-05-19T04:39:23.814Z,72.18
2019-05-19T04:44:25.923Z,71.77
2019-05-19T04:49:28.037Z,71.41
2019-05-19T04:54:30.166Z,69.18
2019-05-19T04:59:32.193Z,68.75
2019-05-19T05:04:34.075Z,68.75
2019-05-19T05:09:36.134Z,66.57
2019-05-19T05:14:38.285Z,70.59
2019-05-19T05:19:40.462Z,66.29
2019-05-19T05:24:42.543Z,65.21
2019-05-19T05:29:44.924Z,64.33
2019-05-19T05:34:47.031Z,62.36
2019-05-19T05:39:49.144Z,60.65
2019-05-19T05:44:51.408Z,61.57
2019-05-19T05:49:53.721Z,59.54
2019-05-19T05:54:55.833Z,58.48
2019-05-19T05:59:57.839Z,58.02
2019-05-19T06:04:59.951Z,59.59
2019-05-19T06:10:02.199Z,56.11
2019-05-19T06:15:05.487Z,58.08
2019-05-19T06:20:09.205Z,57.71
2019-05-19T06:25:15.747Z,57.13
2019-05-19T06:30:18.321Z,56.11
2019-05-19T06:35:20.528Z,57.52
2019-05-19T06:40:22.918Z,58.89
2019-05-19T06:45:25.029Z,59.51
2019-05-19T06:50:27.433Z,57.10
2019-05-19T06:55:29.559Z,58.38
2019-05-19T07:00:31.666Z,57.70
2019-05-19T07:05:33.770Z,54.70
2019-05-19T07:10:36.130Z,51.27
2019-05-19T07:15:37.990Z,53.79
2019-05-19T07:20:40.154Z,54.51
2019-05-19T07:25:42.517Z,51.79
2019-05-19T07:30:44.679Z,51.12
2019-05-19T07:35:47.054Z,47.93
2019-05-19T07:40:49.330Z,50.97
2019-05-19T07:45:51.444Z,49.90
2019-05-19T07:50:53.628Z,47.16
2019-05-19T07:55:55.867Z,47.87
2019-05-19T08:00:57.667Z,46.52
2019-05-19T08:05:59.680Z,47.11
2019-05-19T08:11:01.750Z,46.07
2019-05-19T08:16:03.966Z,45.47
2019-05-19T08:21:05.845Z,39.45
2019-05-19T08:26:08.083Z,41.35
2019-05-19T08:31:10.048Z,42.52
2019-05-19T08:36:12.207Z,46.14
2019-05-19T08:41:15.521Z,42.82
2019-05-19T08:46:17.557Z,46.62
2019-05-19T08:51:21.088Z,43.45
2019-05-19T08:56:23.564Z,45.81
2019-05-19T09:01:26.160Z,46.14
2019-05-19T09:06:30.361Z,46.14
2019-05-19T09:11:32.755Z,44.76
2019-05-19T09:16:35.110Z,46.33
2019-05-19T09:21:37.550Z,50.19
2019-05-19T09:26:40.567Z,43.62
2019-05-19T09:31:44.316Z,44.20
2019-05-19T09:36:46.853Z,39.28
2019-05-19T09:41:49.470Z,38.54
2019-05-19T09:46:52.119Z,39.85
2019-05-19T09:51:54.747Z,35.07
2019-05-19T09:56:57.336Z,33.14
2019-05-19T10:01:59.980Z,33.00
2019-05-19T10:07:03.303Z,35.59
2019-05-19T10:12:07.454Z,32.47
2019-05-19T10:17:10.195Z,33.75
2019-05-19T10:22:14.712Z,31.25
2019-05-19T10:27:17.224Z,31.41
2019-05-19T10:32:19.766Z,31.34
2019-05-19T10:37:22.295Z,29.03
2019-05-19T10:42:24.811Z,32.22
2019-05-19T10:47:28.959Z,29.99
2019-05-19T10:52:31.150Z,29.03
2019-05-19T10:57:33.152Z,30.55
2019-05-19T11:02:35.263Z,30.12
2019-05-19T11:07:37.254Z,32.64
2019-05-19T11:12:39.422Z,30.29
2019-05-19T11:17:41.305Z,30.07
2019-05-19T11:22:43.463Z,30.66
2019-05-19T11:27:45.645Z,31.10
2019-05-19T11:32:47.363Z,33.44
2019-05-19T11:37:49.330Z,32.74
2019-05-19T11:42:51.356Z,35.33
2019-05-19T11:47:53.264Z,31.74
2019-05-19T11:52:55.439Z,32.51
2019-05-19T11:57:57.947Z,33.09
2019-05-19T12:03:00.401Z,30.82
2019-05-19T12:08:02.537Z,29.37
2019-05-19T12:13:05.955Z,32.54
2019-05-19T12:18:08.150Z,32.20
2019-05-19T12:23:10.685Z,33.21
2019-05-19T12:28:12.888Z,35.08
2019-05-19T12:33:16.167Z,36.00
2019-05-19T12:38:18.122Z,37.74
2019-05-19T12:43:20.399Z,36.10
2019-05-19T12:48:22.565Z,35.52
2019-05-19T12:53:24.469Z,36.62
2019-05-19T12:58:26.717Z,39.20
2019-05-19T13:03:28.921Z,37.33
2019-05-19T13:08:31.120Z,35.95
2019-05-19T13:13:33.131Z,39.05
2019-05-19T13:18:36.902Z,36.91
2019-05-19T13:23:39.248Z,37.34
2019-05-19T13:28:41.627Z,34.95
2019-05-19T13:33:43.802Z,36.27
2019-05-19T13:38:46.121Z,36.43
2019-05-19T13:43:49.362Z,35.55
2019-05-19T13:48:51.206Z,35.41
2019-05-19T13:53:53.222Z,34.96
2019-05-19T13:58:56.475Z,37.54
2019-05-19T14:03:58.592Z,36.65
2019-05-19T14:09:00.892Z,36.58
2019-05-19T14:14:05.007Z,37.43
2019-05-19T14:19:07.137Z,38.18
2019-05-19T14:24:09.673Z,39.25
2019-05-19T14:29:11.884Z,38.66
2019-05-19T14:34:14.487Z,41.47
2019-05-19T14:39:17.030Z,40.09
2019-05-19T14:44:19.093Z,42.46
2019-05-19T14:49:21.200Z,41.55
2019-05-19T14:54:23.260Z,41.47
2019-05-19T14:59:27.074Z,41.52
2019-05-19T15:04:29.227Z,42.22
2019-05-19T15:09:31.475Z,41.44
2019-05-19T15:14:33.568Z,41.91
2019-05-19T15:19:35.842Z,43.55
2019-05-19T15:24:38.027Z,43.46
2019-05-19T15:29:40.085Z,42.91
2019-05-19T15:34:42.364Z,43.38
2019-05-19T15:39:44.576Z,43.01
2019-05-19T15:44:46.704Z,44.48
2019-05-19T15:49:48.950Z,44.04
2019-05-19T15:54:51.630Z,44.65
2019-05-19T15:59:56.022Z,43.35
2019-05-19T16:04:58.238Z,43.37
2019-05-19T16:10:00.573Z,44.26
2019-05-19T16:15:06.299Z,43.40
2019-05-19T16:20:09.003Z,43.23
2019-05-19T16:25:12.051Z,44.37
2019-05-19T16:30:14.505Z,44.75
2019-05-19T16:35:16.762Z,44.59
2019-05-19T16:40:19.094Z,45.96
2019-05-19T16:45:21.325Z,47.66
2019-05-19T16:50:25.245Z,46.87
2019-05-19T16:55:29.310Z,46.82
2019-05-19T17:00:31.737Z,46.40
2019-05-19T17:05:34.719Z,46.44
2019-05-19T17:10:38.299Z,46.90
2019-05-19T17:15:40.645Z,46.77
2019-05-19T17:20:42.764Z,47.12
2019-05-19T17:25:46.435Z,46.38
2019-05-19T17:30:48.892Z,46.28
2019-05-19T17:35:50.846Z,46.73
2019-05-19T17:40:53.278Z,47.37
2019-05-19T17:45:55.935Z,46.86
2019-05-19T17:50:58.508Z,47.91
2019-05-19T17:56:02.505Z,48.88
2019-05-19T18:01:04.861Z,49.73
2019-05-19T18:06:07.172Z,49.14
2019-05-19T18:11:09.495Z,49.53
2019-05-19T18:16:13.417Z,50.70
2019-05-19T18:21:17.610Z,49.31
2019-05-19T18:26:19.954Z,50.07
2019-05-19T18:31:22.412Z,49.02
2019-05-19T18:36:24.876Z,48.87
2019-05-19T18:41:27.380Z,48.71
2019-05-19T18:46:29.422Z,48.32
2019-05-19T18:51:31.530Z,48.61
2019-05-19T18:56:33.828Z,49.60
2019-05-19T19:01:36.247Z,49.06
2019-05-19T19:06:38.640Z,50.58
2019-05-19T19:11:40.832Z,51.37
2019-05-19T19:16:43.030Z,49.58
2019-05-19T19:21:45.499Z,50.17
2019-05-19T19:26:47.739Z,50.46
2019-05-19T19:31:50.077Z,52.05
2019-05-19T19:36:52.483Z,53.67
2019-05-19T19:41:54.660Z,55.09
2019-05-19T19:46:56.658Z,55.89
2019-05-19T19:51:58.774Z,55.71
2019-05-19T19:57:00.889Z,57.31
2019-05-19T20:02:03.178Z,57.95
2019-05-19T20:07:05.539Z,57.60
2019-05-19T20:12:08.002Z,57.42
2019-05-19T20:17:12.051Z,58.43
2019-05-19T20:22:14.270Z,60.19
2019-05-19T20:27:16.609Z,60.04
2019-05-19T20:32:18.925Z,59.73
2019-05-19T20:37:21.137Z,60.35
2019-05-19T20:42:23.391Z,60.21
2019-05-19T20:47:25.596Z,59.56
2019-05-19T20:52:28.356Z,58.71
2019-05-19T20:57:30.795Z,60.43
2019-05-19T21:02:33.220Z,60.43
2019-05-19T21:07:35.550Z,60.21
2019-05-19T21:12:37.687Z,60.87
2019-05-19T21:17:39.699Z,61.36
2019-05-19T21:22:41.955Z,60.93
2019-05-19T21:27:43.927Z,61.15
2019-05-19T21:32:46.187Z,61.15
2019-05-19T21:37:48.326Z,60.85
2019-05-19T21:42:50.257Z,62.47
2019-05-19T21:47:52.340Z,61.94
2019-05-19T21:52:54.680Z,61.75
2019-05-19T21:57:56.709Z,62.65
2019-05-19T22:02:58.844Z,63.66
2019-05-19T22:08:02.875Z,63.29
2019-05-19T22:13:04.942Z,62.74
2019-05-19T22:18:07.110Z,62.79
2019-05-19T22:23:09.224Z,61.97
2019-05-19T22:28:11.537Z,61.92
2019-05-19T22:33:13.590Z,60.19
2019-05-19T22:38:15.690Z,59.45
2019-05-19T22:43:17.819Z,61.94
2019-05-19T22:48:20.013Z,62.95
2019-05-19T22:53:21.930Z,62.02
2019-05-19T22:58:23.979Z,59.43
2019-05-19T23:03:25.991Z,59.24
2019-05-19T23:08:28.324Z,60.17
2019-05-19T23:13:30.355Z,60.00
2019-05-19T23:18:32.562Z,59.32
2019-05-19T23:23:34.473Z,61.71
2019-05-19T23:28:36.374Z,60.79
2019-05-19T23:33:38.468Z,59.78
2019-05-19T23:38:40.619Z,57.93
2019-05-19T23:43:42.871Z,58.83
2019-05-19T23:48:44.951Z,55.97
2019-05-19T23:53:47.192Z,59.61
2019-05-19T23:58:49.253Z,58.41
